createdAt,value
2019-04-21T00:04:37.886Z,28.7
2019-04-21T00:14:33.600Z,28.7
2019-04-21T00:24:33.504Z,28.7
2019-04-21T00:34:23.715Z,28.7
2019-04-21T00:44:32.920Z,28.7
2019-04-21T00:54:47.973Z,28.7
2019-04-21T01:04:42.425Z,28.7
2019-04-21T01:14:48.272Z,28.7
2019-04-21T01:24:24.447Z,28.7
2019-04-21T01:34:38.783Z,28.7
2019-04-21T01:44:41.528Z,28.7
2019-04-21T01:54:40.215Z,28.7
2019-04-21T02:04:13.650Z,28.7
2019-04-21T02:14:14.551Z,28.7
2019-04-21T02:24:20.262Z,28.7
2019-04-21T02:34:40.071Z,28.7
2019-04-21T02:54:53.167Z,28.7
2019-04-21T03:15:10.257Z,28.5
2019-04-21T03:55:52.738Z,28.5
2019-04-21T04:16:35.193Z,28.5
2019-04-21T04:26:39.167Z,28.1
2019-04-21T04:36:42.394Z,27.8
2019-04-21T04:46:33.084Z,26.9
2019-04-21T04:56:28.557Z,24.3
2019-04-21T05:06:56.056Z,22.1
2019-04-21T05:26:25.697Z,21.9
2019-04-21T05:36:33.845Z,21.9
2019-04-21T05:46:31.291Z,22.3
2019-04-21T05:56:34.965Z,22.5
2019-04-21T06:06:32.090Z,23
2019-04-21T06:16:35.587Z,23.5
2019-04-21T06:26:49.877Z,24.1
2019-04-21T06:36:35.676Z,24.8
2019-04-21T06:46:34.755Z,25.5
2019-04-21T06:56:30.516Z,26.3
2019-04-21T07:06:29.170Z,27.1
2019-04-21T07:16:24.970Z,27.9
2019-04-21T07:26:24.982Z,28.7
2019-04-21T07:36:30.299Z,29.3
2019-04-21T07:46:14.093Z,30.1
2019-04-21T07:56:07.141Z,30.6
2019-04-21T08:06:20.331Z,31.2
2019-04-21T08:26:13.619Z,32.3
2019-04-21T08:46:18.784Z,33.1
2019-04-21T08:56:14.855Z,33.5
2019-04-21T09:07:12.480Z,33.7
2019-04-21T09:16:59.954Z,34.2
2019-04-21T09:26:57.084Z,34.6
2019-04-21T09:36:48.486Z,35.3
2019-04-21T09:46:48.786Z,35.8
2019-04-21T09:56:50.954Z,36.3
2019-04-21T10:06:41.134Z,36.6
2019-04-21T10:16:40.673Z,37.1
2019-04-21T10:26:40.869Z,37.6
2019-04-21T10:36:39.032Z,38.2
2019-04-21T10:46:38.332Z,38.6
2019-04-21T10:56:42.195Z,39.3
2019-04-21T11:06:36.948Z,39.8
2019-04-21T11:16:37.158Z,40.5
2019-04-21T11:26:35.900Z,40.8
2019-04-21T11:36:35.274Z,41.3
2019-04-21T11:46:34.211Z,41.8
2019-04-21T11:56:32.978Z,42.3
2019-04-21T12:06:38.505Z,42.9
2019-04-21T12:16:32.798Z,43.5
2019-04-21T12:26:31.680Z,44.3
2019-04-21T12:36:29.833Z,45
2019-04-21T12:46:29.844Z,45.6
2019-04-21T12:56:29.397Z,46.1
2019-04-21T13:06:27.792Z,46.6
2019-04-21T13:16:27.559Z,47.1
2019-04-21T13:26:32.630Z,47.8
2019-04-21T13:36:25.633Z,48.4
2019-04-21T13:46:24.925Z,49.1
2019-04-21T13:56:24.738Z,49.8
2019-04-21T14:02:22.897Z,50.1
2019-04-21T14:12:23.320Z,50.7
2019-04-21T14:22:22.191Z,51.3
2019-04-21T14:32:20.435Z,51.6
2019-04-21T14:42:20.241Z,51.9
2019-04-21T14:52:19.134Z,52.2
2019-04-21T15:02:18.149Z,52.1
2019-04-21T15:12:18.218Z,52.3
2019-04-21T15:22:16.686Z,52.4
2019-04-21T15:32:16.856Z,52.5
2019-04-21T15:42:16.539Z,52.6
2019-04-21T15:52:15.859Z,52.6
2019-04-21T16:02:14.934Z,52.6
2019-04-21T16:12:13.725Z,52.6
2019-04-21T16:22:12.935Z,52.5
2019-04-21T16:32:14.087Z,52.4
2019-04-21T16:42:11.951Z,43.4
2019-04-21T16:52:10.061Z,27.9
2019-04-21T17:02:10.348Z,24.6
2019-04-21T17:12:11.835Z,24.6
2019-04-21T17:22:07.824Z,24.8
2019-04-21T17:29:40.790Z,24.8
2019-04-21T17:39:38.761Z,24.5
2019-04-21T17:49:39.247Z,24.1
2019-04-21T18:00:01.122Z,23.8
2019-04-21T18:09:59.963Z,23.9
2019-04-21T18:19:38.404Z,23.4
2019-04-21T18:29:34.700Z,20.2
2019-04-21T18:39:49.176Z,20.3
2019-04-21T18:49:33.426Z,20.1
2019-04-21T18:59:36.037Z,19.9
2019-04-21T19:10:08.049Z,19.9
2019-04-21T19:19:54.196Z,18.8
2019-04-21T19:29:58.071Z,18.3
2019-04-21T19:39:42.580Z,18.2
2019-04-21T19:49:49.071Z,18.1
2019-04-21T19:59:36.487Z,18.1
2019-04-21T20:09:39.410Z,18.1
2019-04-21T20:19:32.033Z,18.1
2019-04-21T20:29:48.554Z,18.1
2019-04-21T20:39:39.026Z,18.2
2019-04-21T20:49:38.318Z,18.2
2019-04-21T20:59:40.744Z,18.2
2019-04-21T21:07:39.880Z,18.2
2019-04-21T21:17:38.828Z,18.3
2019-04-21T21:27:26.478Z,18.3
2019-04-21T21:37:31.707Z,18.3
2019-04-21T21:47:23.840Z,18.3
2019-04-21T21:57:10.241Z,18.3
2019-04-21T22:07:12.254Z,18.3
2019-04-21T22:17:21.295Z,18.3
2019-04-21T22:27:07.243Z,18.3
2019-04-21T22:37:21.011Z,18.3
2019-04-21T22:47:13.989Z,18.4
2019-04-21T22:57:12.025Z,18.4
2019-04-21T23:07:08.596Z,18.4
2019-04-21T23:17:23.836Z,18.4
2019-04-21T23:27:13.996Z,18.4
2019-04-21T23:37:08.775Z,18.4
2019-04-21T23:47:05.272Z,18.5
2019-04-21T23:57:02.729Z,18.5
